Air Navigation Services of Czech Republic
Airport: LKKB Updated:  21.11.2019 18:00:27  UTC
 METAR LKKB 21.11. 18:00 ...
METAR LKKB 211800Z 13006KT 9999 SCT021 BKN030 09/08 Q1008 NOSIG RMK BLU BLU=
 TAF LKKB 21.11. 17:00 ...
TAF LKKB 211700Z 2118/2218 09010KT 7000 BKN025      BECMG 2118/2120 20008KT      TEMPO 2118/2121 5000 RA BR SCT005 OVC020      BECMG 2200/2202 VRB02KT 3000 BR BKN003 OVC015      TEMPO 2203/2209 0600 FG BKN001 OVC010      BECMG 2209/2211 5000 BR BKN005 OVC020      BECMG 2215/2217 12008KT=